Time;durP1;ratioP1;P1;durP2;ratioP2;P2;SDS_P1;SDS_P2;PMS_P1;PMS_P2;Temp;Humidity;BMP_temperature;BMP_pressure;BME280_temperature;BME280_humidity;BME280_pressure;Samples;Min_cycle;Max_cycle;Signal;HPM_P1;HPM_P2
2021/10/22 00:08:53;;;;;;;1.40;0.40;;;;;;;9.16;59.81;98399.95;462400;1190;141282;-61
2021/10/22 00:18:59;;;;;;;4.50;0.60;;;;;;;8.84;59.64;98418.98;477825;1183;141612;-61
2021/10/22 00:29:06;;;;;;;3.10;0.90;;;;;;;8.34;59.41;98437.05;477817;1190;141893;-61
2021/10/22 00:39:11;;;;;;;1.20;0.60;;;;;;;7.86;60.18;98450.08;463768;1190;141331;-60
2021/10/22 00:49:21;;;;;;;8.30;0.80;;;;;;;7.53;60.64;98459.34;461003;1176;143988;-58
2021/10/22 00:59:27;;;;;;;3.00;0.50;;;;;;;7.42;61.20;98478.05;462405;1190;140890;-62
2021/10/22 01:09:33;;;;;;;2.20;0.60;;;;;;;7.18;61.72;98482.73;462857;1190;141176;-58
2021/10/22 01:19:40;;;;;;;2.10;1.10;;;;;;;7.06;61.86;98503.21;472628;1190;142146;-59
2021/10/22 01:29:46;;;;;;;3.00;0.90;;;;;;;6.99;61.19;98522.13;463098;1190;141221;-62
2021/10/22 01:39:52;;;;;;;4.20;1.00;;;;;;;6.82;61.00;98536.61;467449;1190;140958;-61
2021/10/22 01:49:59;;;;;;;6.00;1.80;;;;;;;6.57;60.76;98555.27;461949;1190;141086;-60
2021/10/22 02:00:07;;;;;;;2.10;1.00;;;;;;;6.40;61.08;98567.31;462444;1190;141624;-61
2021/10/22 02:10:13;;;;;;;4.80;1.40;;;;;;;6.27;61.74;98570.16;474721;1190;145152;-61
2021/10/22 02:20:20;;;;;;;3.30;0.80;;;;;;;6.17;61.77;98573.08;473677;1190;141655;-62
2021/10/22 02:30:27;;;;;;;5.10;0.80;;;;;;;5.96;61.91;98591.16;472181;1190;145498;-59
2021/10/22 02:40:34;;;;;;;6.10;1.90;;;;;;;5.92;62.27;98594.21;465101;1190;141068;-59
2021/10/22 02:50:40;;;;;;;4.40;0.80;;;;;;;5.85;62.30;98599.98;467015;1190;143219;-60
2021/10/22 03:00:46;;;;;;;3.20;1.00;;;;;;;5.70;62.48;98616.68;475469;1190;141061;-61
2021/10/22 03:10:52;;;;;;;3.50;0.70;;;;;;;5.67;62.64;98627.30;477960;1190;141915;-61
2021/10/22 03:20:58;;;;;;;1.50;0.80;;;;;;;5.48;62.94;98649.38;477023;1190;144685;-61
2021/10/22 03:31:04;;;;;;;1.90;0.90;;;;;;;5.40;62.74;98658.56;477912;1190;141598;-60
2021/10/22 03:41:10;;;;;;;4.10;1.10;;;;;;;5.27;62.64;98670.74;477815;1190;140059;-61
2021/10/22 03:51:17;;;;;;;5.60;1.90;;;;;;;5.20;63.05;98678.60;467075;1190;183444;-59
2021/10/22 04:01:23;;;;;;;6.90;0.90;;;;;;;5.11;63.46;98681.52;464543;1190;140738;-62
2021/10/22 04:11:29;;;;;;;1.80;0.80;;;;;;;5.07;63.42;98684.30;477270;1189;140721;-60
2021/10/22 04:21:35;;;;;;;3.20;0.90;;;;;;;5.08;63.85;98698.70;478218;1189;141344;-62
2021/10/22 04:31:41;;;;;;;1.80;0.90;;;;;;;5.01;63.98;98706.65;478188;1189;140800;-61
2021/10/22 04:41:47;;;;;;;2.50;1.20;;;;;;;5.23;64.46;98714.52;477401;1189;140388;-62
2021/10/22 04:51:53;;;;;;;5.10;1.10;;;;;;;5.43;64.53;98728.46;477701;1189;140996;-61
2021/10/22 05:01:59;;;;;;;6.70;1.60;;;;;;;5.39;64.70;98738.41;477766;1190;144551;-61
2021/10/22 05:12:07;;;;;;;4.70;1.00;;;;;;;5.30;64.73;98751.42;469438;1190;142839;-60
2021/10/22 05:22:13;;;;;;;5.70;1.20;;;;;;;5.24;65.18;98773.61;474818;1190;140597;-62
2021/10/22 05:32:19;;;;;;;1.90;1.00;;;;;;;5.36;65.18;98796.58;470149;1190;145380;-60
2021/10/22 05:42:25;;;;;;;5.30;2.00;;;;;;;5.57;64.92;98808.96;463393;1190;141477;-60
2021/10/22 05:52:32;;;;;;;6.10;1.50;;;;;;;5.74;64.66;98810.60;477677;1190;141175;-61
2021/10/22 06:02:42;;;;;;;4.10;1.60;;;;;;;5.89;64.33;98807.83;476969;1190;141029;-61
2021/10/22 06:12:48;;;;;;;5.90;1.70;;;;;;;6.12;63.97;98816.98;477103;1190;142419;-60
2021/10/22 06:33:17;;;;;;;7.10;2.60;;;;;;;8.99;61.85;98831.59;477008;1190;141130;-62
2021/10/22 06:43:24;;;;;;;7.10;2.40;;;;;;;13.18;56.92;98825.25;461845;1190;141371;-60
2021/10/22 06:53:32;;;;;;;3.50;1.30;;;;;;;16.06;51.82;98825.15;477025;1189;140701;-75
2021/10/22 07:03:40;;;;;;;4.50;1.80;;;;;;;18.27;48.04;98823.36;474674;1190;141046;-67
2021/10/22 07:13:51;;;;;;;4.90;2.20;;;;;;;19.88;44.49;98838.33;477928;1190;140774;-69
2021/10/22 07:24:00;;;;;;;2.90;1.20;;;;;;;20.24;41.80;98850.73;476996;1190;140964;-64
2021/10/22 07:34:07;;;;;;;6.80;2.30;;;;;;;19.07;40.82;98859.86;477756;1190;140724;-72
2021/10/22 07:44:12;;;;;;;;;;;;;;;18.64;40.12;98863.89;477753;1190;140103;-69
2021/10/22 07:54:19;;;;;;;8.50;2.00;;;;;;;18.15;39.84;98875.96;453403;1183;20001868;-71
2021/10/22 08:04:26;;;;;;;5.90;2.00;;;;;;;16.25;41.21;98886.16;469813;1190;141310;-70
2021/10/22 08:14:34;;;;;;;7.00;1.70;;;;;;;18.11;40.25;98886.20;471682;1189;140603;-74
2021/10/22 08:24:40;;;;;;;8.70;2.60;;;;;;;20.09;37.83;98889.00;468191;1190;140703;-67
2021/10/22 08:34:46;;;;;;;5.60;1.60;;;;;;;20.57;36.93;98898.27;465541;1190;139995;-65
2021/10/22 08:44:53;;;;;;;10.30;2.60;;;;;;;19.95;36.10;98902.25;470380;1190;141113;-62
2021/10/22 08:55:01;;;;;;;4.00;1.70;;;;;;;17.52;37.32;98898.54;469158;1190;140983;-64
2021/10/22 09:05:20;;;;;;;5.50;1.70;;;;;;;16.62;38.99;98897.91;477565;1190;140431;-74
2021/10/22 09:15:28;;;;;;;5.10;2.50;;;;;;;17.15;38.86;98893.64;476326;1189;150841;-70
2021/10/22 09:25:33;;;;;;;;;;;;;;;14.70;40.43;98894.04;460694;1192;141688;-62
2021/10/22 09:35:43;;;;;;;9.30;2.10;;;;;;;12.65;43.00;98902.98;477310;1189;127643;-68
2021/10/22 09:45:50;;;;;;;7.40;2.30;;;;;;;11.56;44.63;98898.52;477895;1190;142151;-75
2021/10/22 09:56:06;;;;;;;4.90;2.80;;;;;;;11.11;46.05;98894.73;475341;1190;139746;-73
2021/10/22 10:06:13;;;;;;;10.60;3.40;;;;;;;10.91;46.53;98887.28;470411;1190;140963;-73
2021/10/22 10:16:19;;;;;;;4.40;1.40;;;;;;;10.69;46.85;98883.02;471481;1190;142752;-62
2021/10/22 10:26:31;;;;;;;3.90;2.00;;;;;;;10.61;47.20;98873.75;470858;1190;145514;-63
2021/10/22 10:36:52;;;;;;;7.20;1.90;;;;;;;11.00;46.96;98864.19;477719;1189;141305;-71
2021/10/22 10:46:59;;;;;;;3.90;1.40;;;;;;;11.08;46.56;98858.46;476402;1189;140928;-72
2021/10/22 11:07:37;;;;;;;2.50;1.00;;;;;;;11.35;46.24;98833.78;456582;1209;599876;-64
2021/10/22 11:17:44;;;;;;;4.90;1.60;;;;;;;11.10;46.50;98844.46;467951;1195;140289;-59
2021/10/22 11:28:02;;;;;;;4.40;1.50;;;;;;;11.04;46.60;98845.67;468533;1196;142539;-59
2021/10/22 11:38:08;;;;;;;5.90;1.80;;;;;;;11.12;46.49;98843.84;461190;1196;140678;-60
2021/10/22 11:48:30;;;;;;;6.40;1.60;;;;;;;11.36;46.41;98837.04;458989;1180;140134;-60
2021/10/22 11:58:38;;;;;;;3.10;0.90;;;;;;;11.38;46.05;98835.14;460018;1195;139614;-60
2021/10/22 12:08:44;;;;;;;5.20;1.40;;;;;;;11.01;45.66;98827.31;459214;1194;139458;-61
2021/10/22 12:18:53;;;;;;;3.80;1.40;;;;;;;10.79;45.83;98822.89;459665;1194;139505;-60
2021/10/22 12:29:02;;;;;;;4.40;1.50;;;;;;;10.65;45.75;98817.27;460470;1195;139954;-59
2021/10/22 12:39:24;;;;;;;5.00;1.10;;;;;;;10.49;45.93;98805.55;459081;1195;140191;-59
2021/10/22 12:49:31;;;;;;;7.30;1.50;;;;;;;10.22;45.97;98804.05;459641;1190;140051;-58
2021/10/22 12:59:37;;;;;;;4.80;1.60;;;;;;;10.09;46.18;98798.36;459453;1194;140107;-61
2021/10/22 13:09:47;;;;;;;4.90;1.30;;;;;;;9.97;46.38;98796.99;460921;1195;140501;-63
2021/10/22 13:30:28;;;;;;;6.40;2.50;;;;;;;9.58;47.08;98792.33;470516;1192;140073;-66
2021/10/22 13:40:33;;;;;;;5.60;1.90;;;;;;;9.52;47.41;98779.25;476719;1192;141144;-67
2021/10/22 13:50:40;;;;;;;4.80;2.10;;;;;;;9.50;47.62;98772.96;468561;1192;143652;-63
2021/10/22 14:00:46;;;;;;;9.80;2.40;;;;;;;9.47;47.83;98766.13;462722;1191;140587;-68
2021/10/22 14:10:53;;;;;;;5.20;2.20;;;;;;;9.44;47.70;98750.13;460921;1191;140539;-64
2021/10/22 14:31:29;;;;;;;6.10;1.90;;;;;;;9.31;48.39;98717.54;461565;1192;144646;-68
2021/10/22 14:41:37;;;;;;;8.70;2.30;;;;;;;9.25;48.63;98709.21;461517;1191;141363;-59
2021/10/22 14:51:56;;;;;;;;;;;;;;;9.13;48.70;98707.13;460602;1192;139661;-59
2021/10/22 15:02:04;;;;;;;;;;;;;;;9.03;48.74;98718.14;462073;1191;126839;-60
2021/10/22 15:12:10;;;;;;;5.40;3.50;;;;;;;8.99;48.96;98719.98;461713;1190;127638;-69
2021/10/22 15:22:17;;;;;;;12.10;5.50;;;;;;;8.89;49.16;98720.69;462420;1177;142679;-63
2021/10/22 15:32:23;;;;;;;6.60;4.50;;;;;;;8.79;49.25;98713.15;461495;1190;145249;-61
2021/10/22 15:42:29;;;;;;;9.60;4.40;;;;;;;8.81;49.00;98721.95;462909;1191;139591;-63
2021/10/22 15:52:35;;;;;;;5.00;3.60;;;;;;;8.76;48.89;98722.96;461144;1191;145339;-63
2021/10/22 16:02:42;;;;;;;7.40;4.00;;;;;;;8.76;48.81;98719.52;461552;1190;144187;-62
2021/10/22 16:13:01;;;;;;;7.20;3.90;;;;;;;8.66;48.69;98716.16;462077;1190;140419;-60
2021/10/22 16:23:07;;;;;;;7.40;3.20;;;;;;;8.55;48.57;98721.85;446906;1190;10001786;-64
2021/10/22 16:35:41;;;;;;;13.50;5.10;;;;;;;8.47;48.45;98722.55;473369;1190;140787;-63
2021/10/22 16:43:50;;;;;;;8.80;3.90;;;;;;;8.42;48.34;98736.45;477823;1190;139769;-74
2021/10/22 16:53:56;;;;;;;7.00;2.90;;;;;;;8.47;48.22;98749.69;468055;1190;140260;-72
2021/10/22 17:04:07;;;;;;;5.50;2.70;;;;;;;8.49;48.07;98750.63;469905;1190;140008;-69
2021/10/22 17:14:13;;;;;;;6.60;1.90;;;;;;;8.54;48.22;98775.81;475994;1190;141926;-67
2021/10/22 17:24:19;;;;;;;8.00;1.90;;;;;;;8.50;49.31;98787.42;464724;1190;140557;-65
2021/10/22 17:34:25;;;;;;;4.50;1.50;;;;;;;8.27;51.19;98777.38;474145;1190;139458;-66
2021/10/22 17:44:31;;;;;;;2.80;1.50;;;;;;;8.07;52.07;98788.50;465047;1190;141279;-68
2021/10/22 17:54:37;;;;;;;6.50;2.60;;;;;;;7.93;52.77;98775.47;472478;1189;140091;-70
2021/10/22 18:04:44;;;;;;;6.30;2.80;;;;;;;7.82;52.99;98755.42;470697;1190;139457;-65
2021/10/22 18:14:50;;;;;;;4.30;2.10;;;;;;;7.90;52.49;98754.90;472214;1190;139414;-60
2021/10/22 18:24:57;;;;;;;6.90;2.70;;;;;;;8.03;51.86;98753.72;475956;1190;140921;-66
2021/10/22 18:35:05;;;;;;;6.40;2.90;;;;;;;8.13;51.71;98752.67;467868;1190;139534;-63
2021/10/22 18:45:11;;;;;;;8.20;2.20;;;;;;;8.21;51.41;98755.81;473734;1190;142736;-63
2021/10/22 18:55:17;;;;;;;7.10;2.40;;;;;;;8.27;51.05;98746.39;477746;1190;140134;-61
2021/10/22 19:05:27;;;;;;;6.20;1.80;;;;;;;8.37;50.75;98751.98;476923;1190;162500;-62
2021/10/22 19:15:33;;;;;;;6.20;2.60;;;;;;;8.45;50.41;98755.78;466584;1190;140864;-63
2021/10/22 19:25:39;;;;;;;4.20;1.60;;;;;;;8.45;50.33;98762.92;473886;1189;139829;-68
2021/10/22 19:35:45;;;;;;;5.80;1.40;;;;;;;8.45;50.67;98792.94;468128;1190;140229;-67
2021/10/22 19:45:51;;;;;;;3.30;2.20;;;;;;;8.35;52.45;98845.91;466214;1190;139607;-66
2021/10/22 19:55:57;;;;;;;5.40;1.30;;;;;;;7.78;57.77;98877.98;471365;1190;140693;-69
2021/10/22 20:06:04;;;;;;;3.40;1.00;;;;;;;7.15;60.17;98899.27;462297;1190;140162;-66
2021/10/22 20:16:11;;;;;;;7.10;2.00;;;;;;;6.74;62.00;98924.73;464045;1190;139593;-67
2021/10/22 20:26:18;;;;;;;5.40;2.20;;;;;;;6.54;63.46;98932.30;465567;1190;140001;-68
2021/10/22 20:36:24;;;;;;;2.60;1.20;;;;;;;6.39;64.80;98955.40;465982;1190;140357;-68
2021/10/22 20:46:31;;;;;;;1.40;0.80;;;;;;;6.30;65.13;98960.27;460692;1190;140704;-67
2021/10/22 20:56:39;;;;;;;1.70;1.10;;;;;;;6.13;65.57;98957.17;460831;1190;141371;-68
2021/10/22 21:06:45;;;;;;;2.50;1.10;;;;;;;5.97;66.26;98970.40;460889;1190;140016;-67
2021/10/22 21:16:51;;;;;;;1.80;1.00;;;;;;;5.80;67.07;98984.48;461221;1190;141052;-67
2021/10/22 21:26:58;;;;;;;2.70;1.50;;;;;;;5.72;67.83;98996.71;461950;1190;140522;-68
2021/10/22 21:37:04;;;;;;;3.10;1.40;;;;;;;5.66;68.78;99006.77;464858;1190;144733;-68
2021/10/22 21:47:10;;;;;;;2.30;1.80;;;;;;;5.71;68.82;99020.70;467181;1189;140415;-66
2021/10/22 21:57:16;;;;;;;4.60;1.40;;;;;;;5.81;69.06;99039.00;476881;1189;141233;-63
2021/10/22 22:07:22;;;;;;;2.40;1.00;;;;;;;5.89;68.99;99046.35;477860;1189;141725;-64
2021/10/22 22:17:29;;;;;;;2.10;1.10;;;;;;;5.98;69.09;99058.75;465623;1190;140686;-64
2021/10/22 22:27:35;;;;;;;4.60;2.30;;;;;;;6.02;69.01;99064.45;465452;1190;140922;-64
2021/10/22 22:37:42;;;;;;;2.90;1.80;;;;;;;6.07;69.17;99080.23;464050;1190;141122;-63
2021/10/22 22:47:49;;;;;;;2.50;1.80;;;;;;;6.12;69.18;99084.96;462119;1190;140601;-64
2021/10/22 22:57:55;;;;;;;2.80;2.10;;;;;;;6.14;69.16;99095.32;472914;1189;142269;-63
2021/10/22 23:08:01;;;;;;;2.20;1.60;;;;;;;6.11;69.06;99099.28;461486;1191;140894;-62
2021/10/22 23:18:09;;;;;;;1.70;1.40;;;;;;;5.95;68.71;99099.23;460123;1191;141363;-76
2021/10/22 23:28:15;;;;;;;3.10;1.50;;;;;;;5.76;69.08;99113.59;465739;1191;187314;-77
2021/10/22 23:38:22;;;;;;;2.10;1.70;;;;;;;5.56;69.05;99133.35;464618;1190;140258;-73
2021/10/22 23:48:28;;;;;;;3.00;2.30;;;;;;;5.51;69.10;99152.86;465278;1190;140887;-79
2021/10/22 23:58:34;;;;;;;1.90;1.80;;;;;;;5.30;69.57;99171.07;465535;1190;140124;-79
